»·PEaware :: FLA91 KGTF-KCYS

FLA91 :: KGTF-KCYS

FLIGHT INFORMATION

Flight Status: Arrived
Operator: Unknown
More flights by this operator :: More flights under this callsign
Pilot: Anonymous 36068 (36068)
Aircraft: BEECH AIRCRAFT PREMIER
(PRM1)
More flights by this aircraft type
Origin: KGTF Great Falls Intl
United States
Destination: KCYS Cheyenne
United States
More flights between these airports :: More routes between these airports
Route: GTF J13 CYS
File this flight plan on PilotEdge
Remarks:
Altitude:
(Current/Filed)
39,000ft
Speed:
(Current/Filed)
400kts
Departed: 17-Sep-21 07:20 AM
Arrived: 17-Sep-21 08:44 AM
Distance/Time
Traveled:
472nm/1:23
Distance/Time
To Go:
Arrived

Flight Plot

Page will automatically refresh every two minutes.

Flight plan parsing failed; only flown route is shown


Map Options




Map Legend


Flown Route
Filed Route
Departure Airport
Arrival Airport
Navaid (VOR, NDB)
Fix

Horizontal Profiles

Position Reports

Time Latitude Longitude Heading Altitude Ground
Speed
17-Sep-21 07:06 47.490751 -111.358297 314 3654ft 0kts
17-Sep-21 07:07 47.490751 -111.358297 314 3654ft 0kts
17-Sep-21 07:08 47.490751 -111.358297 314 3654ft 0kts
17-Sep-21 07:09 47.490751 -111.358297 314 3654ft 0kts
17-Sep-21 07:10 47.490751 -111.358297 314 3654ft 0kts
17-Sep-21 07:11 47.490751 -111.358297 314 3654ft 0kts
17-Sep-21 07:12 47.490705 -111.357389 102 3654ft 12kts
17-Sep-21 07:13 47.490416 -111.355037 133 3650ft 0kts
17-Sep-21 07:14 47.490416 -111.355037 133 3650ft 0kts
17-Sep-21 07:15 47.490416 -111.355037 133 3650ft 0kts
17-Sep-21 07:16 47.490416 -111.355037 133 3650ft 0kts
17-Sep-21 07:17 47.490416 -111.355037 133 3650ft 0kts
17-Sep-21 07:18 47.489964 -111.354394 142 3651ft 10kts
17-Sep-21 07:19 47.472919 -111.378282 225 3941ft 183kts
17-Sep-21 07:20 47.429786 -111.445599 221 6109ft 267kts
17-Sep-21 07:21 47.377286 -111.400337 100 9160ft 280kts
17-Sep-21 07:22 47.363718 -111.284931 99 11933ft 293kts
17-Sep-21 07:23 47.321098 -111.182638 130 14419ft 305kts
17-Sep-21 07:24 47.266110 -111.085374 129 16645ft 315kts
17-Sep-21 07:25 47.209221 -110.985057 129 18630ft 325kts
17-Sep-21 07:26 47.150380 -110.881685 129 20413ft 335kts
17-Sep-21 07:27 47.089786 -110.775643 129 22019ft 343kts
17-Sep-21 07:28 47.027659 -110.667342 129 23621ft 347kts
17-Sep-21 07:29 46.965990 -110.560264 129 25214ft 348kts
17-Sep-21 07:30 46.903045 -110.451403 129 26476ft 355kts
17-Sep-21 07:31 46.838539 -110.340296 130 27617ft 362kts
17-Sep-21 07:32 46.772951 -110.227778 130 28807ft 363kts
17-Sep-21 07:33 46.708199 -110.117152 130 30049ft 362kts
17-Sep-21 07:34 46.642194 -110.004842 130 31008ft 366kts
17-Sep-21 07:35 46.576170 -109.892961 130 32102ft 364kts
17-Sep-21 07:36 46.510590 -109.782284 130 33192ft 360kts
17-Sep-21 07:37 46.445486 -109.672850 130 34283ft 355kts
17-Sep-21 07:38 46.381709 -109.566068 130 35367ft 348kts
17-Sep-21 07:39 46.318992 -109.461466 130 36452ft 339kts
17-Sep-21 07:40 46.258364 -109.360724 130 37524ft 327kts
17-Sep-21 07:41 46.199228 -109.262820 131 38397ft 320kts
17-Sep-21 07:42 46.141088 -109.166905 131 39056ft 317kts
17-Sep-21 07:43 46.081738 -109.069336 131 39086ft 334kts
17-Sep-21 07:44 46.018838 -108.966306 131 39085ft 351kts
17-Sep-21 07:45 45.952897 -108.858708 131 39085ft 366kts
17-Sep-21 07:46 45.884283 -108.747192 131 39084ft 380kts
17-Sep-21 07:47 45.812195 -108.633778 142 39082ft 391kts
17-Sep-21 07:48 45.744692 -108.566486 147 39017ft 401kts
17-Sep-21 07:49 45.649687 -108.480009 147 39001ft 409kts
17-Sep-21 07:50 45.552854 -108.392333 147 39001ft 416kts
17-Sep-21 07:51 45.455719 -108.304742 147 38999ft 413kts
17-Sep-21 07:52 45.358980 -108.217866 147 38999ft 411kts
17-Sep-21 07:53 45.262507 -108.131588 147 38999ft 408kts
17-Sep-21 07:54 45.166786 -108.046330 147 38999ft 407kts
17-Sep-21 07:55 45.071100 -107.961445 147 38999ft 405kts
17-Sep-21 07:56 44.975592 -107.877055 147 38999ft 405kts
17-Sep-21 07:57 44.880347 -107.793232 147 38999ft 404kts
17-Sep-21 07:58 44.785092 -107.709731 147 38999ft 404kts
17-Sep-21 07:59 44.690172 -107.626850 147 38999ft 403kts
17-Sep-21 08:00 44.594663 -107.543780 147 38999ft 403kts
17-Sep-21 08:01 44.499571 -107.461395 147 38999ft 403kts
17-Sep-21 08:02 44.404512 -107.379358 147 39000ft 403kts
17-Sep-21 08:03 44.308831 -107.297105 148 39000ft 403kts
17-Sep-21 08:04 44.213529 -107.215494 148 39000ft 403kts
17-Sep-21 08:05 44.118263 -107.134226 148 39000ft 403kts
17-Sep-21 08:06 44.022794 -107.053095 148 39000ft 403kts
17-Sep-21 08:07 43.927181 -106.972152 148 39000ft 403kts
17-Sep-21 08:08 43.831348 -106.891334 148 39000ft 403kts
17-Sep-21 08:09 43.735595 -106.810889 148 39000ft 403kts
17-Sep-21 08:10 43.639710 -106.730637 148 39000ft 404kts
17-Sep-21 08:11 43.543820 -106.650682 148 39000ft 404kts
17-Sep-21 08:12 43.448000 -106.571087 148 39000ft 404kts
17-Sep-21 08:13 43.351908 -106.491563 148 39000ft 404kts
17-Sep-21 08:14 43.255678 -106.412223 148 39000ft 404kts
17-Sep-21 08:15 43.218171 -106.380644 151 39274ft 396kts
17-Sep-21 08:16 43.123397 -106.303600 153 39317ft 396kts
17-Sep-21 08:18 43.029117 -106.225904 153 39323ft 398kts
17-Sep-21 08:19 42.934356 -106.147313 156 39321ft 399kts
17-Sep-21 08:20 42.839153 -106.069265 158 39321ft 399kts
17-Sep-21 08:21 42.742384 -105.990320 157 38354ft 427kts
17-Sep-21 08:22 42.641658 -105.907887 157 37443ft 417kts
17-Sep-21 08:23 42.542748 -105.827507 157 34538ft 414kts
17-Sep-21 08:24 42.446670 -105.749754 157 31506ft 406kts
17-Sep-21 08:25 42.351338 -105.672752 156 28161ft 389kts
17-Sep-21 08:26 42.261221 -105.600269 156 25414ft 366kts
17-Sep-21 08:27 42.172968 -105.529512 155 25361ft 375kts
17-Sep-21 08:28 42.082933 -105.457450 156 25207ft 364kts
17-Sep-21 08:29 41.996915 -105.389068 155 22557ft 352kts
17-Sep-21 08:30 41.921675 -105.329343 155 19731ft 337kts
17-Sep-21 08:31 41.848759 -105.271616 154 16958ft 323kts
17-Sep-21 08:32 41.773128 -105.211909 153 14086ft 315kts
17-Sep-21 08:33 41.700430 -105.154519 153 12964ft 294kts
17-Sep-21 08:34 41.628100 -105.097724 153 12966ft 308kts
17-Sep-21 08:35 41.553304 -105.039107 153 12985ft 314kts
17-Sep-21 08:36 41.479740 -104.995320 169 12992ft 256kts
17-Sep-21 08:37 41.414656 -104.973021 169 11638ft 229kts
17-Sep-21 08:38 41.356324 -104.953013 168 9918ft 212kts
17-Sep-21 08:39 41.303538 -104.934879 166 8007ft 171kts
17-Sep-21 08:40 41.262421 -104.920704 166 7903ft 146kts
17-Sep-21 08:41 41.224404 -104.905205 147 7842ft 148kts
17-Sep-21 08:41 41.198358 -104.874799 138 7224ft 146kts
17-Sep-21 08:42 41.170775 -104.838648 137 6487ft 128kts
17-Sep-21 08:44 41.150110 -104.811643 135 6125ft 0kts
17-Sep-21 08:45 41.149156 -104.811533 266 6124ft 0kts
17-Sep-21 08:46 41.149518 -104.812646 314 6127ft 0kts
17-Sep-21 08:46 41.151124 -104.814755 315 6134ft 15kts
17-Sep-21 08:47 41.153727 -104.818148 315 6142ft 12kts
17-Sep-21 08:48 41.154455 -104.820733 298 6144ft 6kts
17-Sep-21 08:49 41.154328 -104.820483 89 6144ft 0kts

Navigation Log

Ident Type
Flight plan parsing failed, navigation log unavailable